Hickory Grove, Louisiana
Current Conditions -  °F | °C
As of 11:14 AM on Thursday 18 Dec 2014 (Local Time) from KESF Reporting Station
Light Rain Light Rain  
Wind Chill: 50°   Ceiling: 500
Heat Index: 50°   Visibility: 10mi
Dew Point: 47°   Wind: 5mph
Humidity: 89%   Direction: NA
Pressure: 30.17"   Gusts: NA
Location:  31.3606°N, 92.2142°W
Report Text: KESF 181714Z AUTO VRB04KT 10SM -RA BKN005 BKN016 10/08 A3017 RMK AO2 CIG 002V007 P0001 T01000083
Loading
Personal Weather Stations






























Interactive Weather Map New forecast layout! Learn more

10-Day Weather Forecast

Advertisements
Track Severe Weather on mobile